Time;durP1;ratioP1;P1;durP2;ratioP2;P2;SDS_P1;SDS_P2;PMS_P1;PMS_P2;Temp;Humidity;BMP_temperature;BMP_pressure;BME280_temperature;BME280_humidity;BME280_pressure;Samples;Min_cycle;Max_cycle;Signal;HPM_P1;HPM_P2
2022/05/04 00:02:13;;;;;;;41.58;21.02;;;9.60;99.90;;;;;;5045902;28;20092;-86
2022/05/04 00:04:40;;;;;;;40.40;20.30;;;9.50;99.90;;;;;;5038545;28;20038;-86
2022/05/04 00:07:10;;;;;;;42.33;19.50;;;9.50;99.90;;;;;;5055227;28;20021;-86
2022/05/04 00:09:39;;;;;;;41.30;20.75;;;9.50;99.90;;;;;;5057848;28;20074;-88
2022/05/04 00:12:05;;;;;;;40.10;20.33;;;9.50;99.90;;;;;;5059106;28;20081;-89
2022/05/04 00:14:33;;;;;;;39.63;20.60;;;9.40;99.90;;;;;;5057842;28;20040;-86
2022/05/04 00:17:23;;;;;;;46.15;21.80;;;9.30;99.90;;;;;;5057776;28;20025;-89
2022/05/04 00:19:52;;;;;;;39.53;21.13;;;9.30;99.90;;;;;;5059222;28;20039;-87
2022/05/04 00:22:24;;;;;;;42.13;21.55;;;9.30;99.90;;;;;;5059010;28;20005;-86
2022/05/04 00:25:10;;;;;;;42.88;20.88;;;9.40;99.90;;;;;;5033622;28;20042;-90
2022/05/04 00:27:39;;;;;;;41.90;21.25;;;9.40;99.90;;;;;;5034697;28;20038;-89
2022/05/04 00:30:15;;;;;;;42.72;20.13;;;9.40;99.90;;;;;;5035657;28;20048;-88
2022/05/04 00:32:46;;;;;;;47.35;19.45;;;9.30;99.90;;;;;;5036395;28;20022;-86
2022/05/04 00:35:12;;;;;;;43.05;21.15;;;9.20;99.90;;;;;;5032720;28;20101;-92
2022/05/04 00:37:39;;;;;;;41.17;21.73;;;9.20;99.90;;;;;;5029554;28;20033;-89
2022/05/04 00:40:45;;;;;;;38.72;20.58;;;9.20;99.90;;;;;;5046395;28;20052;-89
2022/05/04 00:43:43;;;;;;;43.03;20.67;;;9.20;99.90;;;;;;4976371;29;20066;-90
2022/05/04 00:46:09;;;;;;;40.58;20.50;;;9.10;99.90;;;;;;4976181;28;20055;-87
2022/05/04 00:48:35;;;;;;;39.22;19.38;;;9.00;99.90;;;;;;4979329;28;20031;-91
2022/05/04 00:51:11;;;;;;;46.88;21.73;;;8.70;99.90;;;;;;4978293;28;20045;-92
2022/05/04 00:53:49;;;;;;;48.55;21.05;;;8.80;99.90;;;;;;4994792;28;20031;-90
2022/05/04 00:56:30;;;;;;;43.53;20.97;;;8.80;99.90;;;;;;4989398;28;20046;-88
2022/05/04 00:58:57;;;;;;;44.90;21.40;;;;;;;;;;4993516;28;20019;-92
2022/05/04 01:01:37;;;;;;;44.95;21.25;;;8.80;99.90;;;;;;4996004;28;20023;-89
2022/05/04 01:04:10;;;;;;;48.20;21.80;;;8.70;99.90;;;;;;4999562;28;20065;-89
2022/05/04 01:06:53;;;;;;;44.08;21.20;;;8.70;99.90;;;;;;4998522;28;20019;-91
2022/05/04 01:09:18;;;;;;;44.55;22.00;;;8.80;99.90;;;;;;4976836;28;20042;-93
2022/05/04 01:11:46;;;;;;;44.38;20.48;;;8.60;99.90;;;;;;4979613;28;20050;-93
2022/05/04 01:14:13;;;;;;;43.78;22.27;;;8.60;99.90;;;;;;5016357;28;20037;-89
2022/05/04 01:16:42;;;;;;;46.40;22.77;;;8.60;99.90;;;;;;5030416;28;20046;-93
2022/05/04 01:19:10;;;;;;;41.38;22.85;;;8.50;99.90;;;;;;5030207;28;20100;-88
2022/05/04 01:21:35;;;;;;;45.60;22.88;;;8.50;99.90;;;;;;5033940;28;20076;-89
2022/05/04 01:24:02;;;;;;;48.90;24.33;;;;;;;;;;5031849;28;20045;-90
2022/05/04 01:26:28;;;;;;;49.92;23.33;;;8.40;99.90;;;;;;5030815;28;20292;-90
2022/05/04 01:28:54;;;;;;;49.13;23.17;;;;;;;;;;5037098;28;20025;-92
2022/05/04 01:31:20;;;;;;;52.28;24.23;;;8.40;99.90;;;;;;5032442;28;20101;-94
2022/05/04 01:33:46;;;;;;;47.33;23.38;;;;;;;;;;5036747;28;20049;-94
2022/05/04 01:36:11;;;;;;;46.58;23.33;;;8.50;99.90;;;;;;5046746;28;20044;-93
2022/05/04 01:38:37;;;;;;;50.33;23.67;;;8.50;99.90;;;;;;5044323;28;20490;-91
2022/05/04 01:42:02;;;;;;;55.13;23.77;;;8.20;99.90;;;;;;5050319;28;20049;-90
2022/05/04 01:44:09;;;;;;;48.85;24.88;;;8.40;99.90;;;;;;5054048;28;20032;-92
2022/05/04 01:46:45;;;;;;;47.40;25.02;;;;;;;;;;5052433;28;20068;-89
2022/05/04 01:49:13;;;;;;;50.67;23.98;;;8.30;99.90;;;;;;5053980;28;20073;-91
2022/05/04 01:51:42;;;;;;;55.38;24.85;;;8.30;99.90;;;;;;5049857;28;20037;-88
2022/05/04 01:54:08;;;;;;;54.63;24.75;;;8.30;99.90;;;;;;5038668;28;20038;-89
2022/05/04 01:56:35;;;;;;;52.42;25.98;;;8.30;99.90;;;;;;5027406;28;20022;-92
2022/05/04 01:59:01;;;;;;;50.85;25.50;;;8.20;99.90;;;;;;5025990;28;20037;-89
2022/05/04 02:01:32;;;;;;;51.08;25.48;;;8.30;99.90;;;;;;5028269;28;20034;-91
2022/05/04 02:04:03;;;;;;;51.95;25.48;;;8.20;99.90;;;;;;5025836;28;20628;-90
2022/05/04 02:06:30;;;;;;;54.80;25.13;;;8.10;99.90;;;;;;5023112;28;20030;-93
2022/05/04 02:08:57;;;;;;;50.55;24.85;;;8.00;99.90;;;;;;5018484;28;20013;-90
2022/05/04 02:11:28;;;;;;;53.30;26.13;;;8.10;99.90;;;;;;5031799;28;20041;-91
2022/05/04 02:13:53;;;;;;;62.88;27.20;;;8.10;99.90;;;;;;5030502;28;20116;-92
2022/05/04 02:16:19;;;;;;;56.75;25.38;;;8.10;99.90;;;;;;5030656;28;20064;-90
2022/05/04 02:18:45;;;;;;;54.15;25.35;;;8.10;99.90;;;;;;5030505;28;20107;-90
2022/05/04 02:21:10;;;;;;;57.78;27.77;;;8.00;99.90;;;;;;5030595;28;20030;-87
2022/05/04 02:23:36;;;;;;;58.17;26.95;;;8.00;99.90;;;;;;5046879;28;20116;-92
2022/05/04 02:26:03;;;;;;;52.72;26.15;;;7.80;99.90;;;;;;5030988;28;20032;-92
2022/05/04 02:28:29;;;;;;;57.72;26.38;;;;;;;;;;5037385;28;20452;-88
2022/05/04 02:30:54;;;;;;;62.75;26.50;;;7.80;99.90;;;;;;5052589;28;20081;-89
2022/05/04 02:33:20;;;;;;;60.88;28.85;;;8.00;99.90;;;;;;5052486;28;20009;-89
2022/05/04 02:38:30;;;;;;;65.18;26.38;;;8.00;99.90;;;;;;5033254;28;20032;-91
2022/05/04 02:40:56;;;;;;;64.70;29.48;;;8.00;99.90;;;;;;5030670;28;20393;-89
2022/05/04 02:43:22;;;;;;;62.67;28.23;;;;;;;;;;5029596;28;20156;-90
2022/05/04 02:45:48;;;;;;;62.10;29.63;;;8.00;99.90;;;;;;5029989;28;20021;-88
2022/05/04 02:48:14;;;;;;;67.25;29.55;;;7.80;99.90;;;;;;5029203;28;20025;-90
2022/05/04 02:50:39;;;;;;;64.05;28.63;;;7.70;99.90;;;;;;5029870;28;20025;-91
2022/05/04 02:53:05;;;;;;;73.32;29.58;;;7.80;99.90;;;;;;5045930;28;20120;-92
2022/05/04 02:55:31;;;;;;;70.22;30.02;;;7.90;99.90;;;;;;5028722;28;20021;-90
2022/05/04 02:57:57;;;;;;;59.88;28.63;;;;;;;;;;5010239;28;20062;-90
2022/05/04 03:00:24;;;;;;;58.78;28.55;;;7.90;99.90;;;;;;5009952;28;20033;-92
2022/05/04 03:02:50;;;;;;;60.78;29.13;;;8.00;99.90;;;;;;5010510;28;20030;-92
2022/05/04 03:05:17;;;;;;;71.13;30.10;;;7.90;99.90;;;;;;5010649;28;20034;-90
2022/05/04 03:07:43;;;;;;;59.42;28.80;;;7.90;99.90;;;;;;5009770;28;20025;-91
2022/05/04 03:10:10;;;;;;;65.75;29.63;;;7.90;99.90;;;;;;5010470;28;20021;-89
2022/05/04 03:12:36;;;;;;;66.95;29.95;;;7.90;99.90;;;;;;5011305;28;20045;-92
2022/05/04 03:15:02;;;;;;;69.97;29.98;;;7.90;99.90;;;;;;5010701;28;20018;-90
2022/05/04 03:17:29;;;;;;;62.00;29.00;;;7.90;99.90;;;;;;5016736;28;20044;-90
2022/05/04 03:19:55;;;;;;;59.92;29.48;;;7.80;99.90;;;;;;5045480;28;20052;-91
2022/05/04 03:22:21;;;;;;;56.20;27.92;;;7.80;99.90;;;;;;5032512;28;20060;-93
2022/05/04 03:24:47;;;;;;;60.60;28.65;;;;;;;;;;5045782;28;20030;-93
2022/05/04 03:27:13;;;;;;;64.28;31.00;;;;;;;;;;5028958;28;20025;-91
2022/05/04 03:29:39;;;;;;;67.07;31.33;;;7.80;99.90;;;;;;5028422;28;20109;-88
2022/05/04 03:32:05;;;;;;;69.38;30.92;;;7.80;99.90;;;;;;5029422;28;20120;-90
2022/05/04 03:34:30;;;;;;;71.28;31.83;;;7.80;99.90;;;;;;5028975;28;20091;-88
2022/05/04 03:36:58;;;;;;;66.95;30.95;;;7.80;99.90;;;;;;5028775;28;20069;-91
2022/05/04 03:39:25;;;;;;;67.85;32.08;;;7.80;99.90;;;;;;5027783;28;20025;-90
2022/05/04 03:41:51;;;;;;;66.57;30.55;;;7.80;99.90;;;;;;5033966;28;20089;-92
2022/05/04 03:44:17;;;;;;;77.00;32.58;;;7.80;99.90;;;;;;5034656;28;20442;-94
2022/05/04 03:46:52;;;;;;;68.47;30.45;;;7.80;99.90;;;;;;5038126;28;20060;-90
2022/05/04 03:49:20;;;;;;;70.60;32.05;;;7.70;99.90;;;;;;5036715;28;20177;-94
2022/05/04 03:51:46;;;;;;;72.10;32.05;;;7.60;99.90;;;;;;5038073;28;20045;-89
2022/05/04 03:54:12;;;;;;;72.40;31.75;;;7.80;99.90;;;;;;5028601;28;20037;-91
2022/05/04 03:56:39;;;;;;;66.47;30.23;;;7.80;99.90;;;;;;5045514;28;20025;-91
2022/05/04 03:59:05;;;;;;;69.68;31.73;;;7.80;99.90;;;;;;5029458;28;20500;-91
2022/05/04 04:01:32;;;;;;;78.35;32.67;;;7.80;99.90;;;;;;5032664;28;20080;-91
2022/05/04 04:03:58;;;;;;;71.53;32.63;;;7.80;99.90;;;;;;5028392;28;20026;-93
2022/05/04 04:06:23;;;;;;;71.72;31.38;;;7.80;99.90;;;;;;5029337;28;20036;-94
2022/05/04 04:08:50;;;;;;;69.32;31.88;;;7.60;99.90;;;;;;5044895;28;20030;-92
2022/05/04 04:11:17;;;;;;;70.30;30.85;;;;;;;;;;5028844;28;20044;-90
2022/05/04 04:13:44;;;;;;;78.20;32.65;;;7.60;99.90;;;;;;5028051;28;20068;-91
2022/05/04 04:16:09;;;;;;;72.57;33.20;;;7.60;99.90;;;;;;5044428;28;20025;-91
2022/05/04 04:18:35;;;;;;;76.40;34.22;;;7.50;99.90;;;;;;5028903;28;20084;-92
2022/05/04 04:23:45;;;;;;;79.03;31.85;;;7.40;99.90;;;;;;5028879;28;20044;-92
2022/05/04 04:26:11;;;;;;;77.65;34.20;;;7.30;99.90;;;;;;5028787;28;20018;-90
2022/05/04 04:28:38;;;;;;;77.70;34.33;;;7.40;99.90;;;;;;5028657;28;20831;-91
2022/05/04 04:31:05;;;;;;;77.10;33.33;;;7.30;99.90;;;;;;5028124;28;20533;-91
2022/05/04 04:33:31;;;;;;;74.88;34.88;;;;;;;;;;5027860;28;20037;-93
2022/05/04 04:35:59;;;;;;;80.22;34.72;;;7.30;99.90;;;;;;5027887;28;20014;-92
2022/05/04 04:38:26;;;;;;;75.97;33.55;;;7.40;99.90;;;;;;5027607;28;20033;-91
2022/05/04 04:40:53;;;;;;;83.85;35.10;;;;;;;;;;5028743;28;20059;-93
2022/05/04 04:43:19;;;;;;;82.13;33.33;;;7.40;99.90;;;;;;5030221;28;20033;-94
2022/05/04 04:45:45;;;;;;;86.65;35.30;;;7.30;99.90;;;;;;5032568;28;20100;-93
2022/05/04 04:48:12;;;;;;;81.05;34.20;;;;;;;;;;5032450;28;20025;-93
2022/05/04 04:50:38;;;;;;;77.68;34.33;;;7.20;99.90;;;;;;5032000;28;20064;-93
2022/05/04 04:53:04;;;;;;;80.13;33.97;;;7.30;99.90;;;;;;5033095;28;20108;-93
2022/05/04 04:55:30;;;;;;;79.20;34.08;;;7.50;99.90;;;;;;5031203;28;20108;-93
2022/05/04 04:57:55;;;;;;;78.25;33.97;;;7.30;99.90;;;;;;5032797;28;20032;-92
2022/05/04 05:00:21;;;;;;;79.28;34.92;;;;;;;;;;5032175;28;20105;-91
2022/05/04 05:02:47;;;;;;;81.40;33.13;;;7.40;99.90;;;;;;5032351;28;20021;-92
2022/05/04 05:05:13;;;;;;;71.90;32.33;;;7.40;99.90;;;;;;5031283;28;20022;-94
2022/05/04 05:32:20;;;;;;;93.80;35.53;;;7.60;99.90;;;;;;4819571;29;20039;-95
2022/05/04 05:34:57;;;;;;;88.25;36.78;;;7.70;99.90;;;;;;4767992;29;20136;-93
2022/05/04 05:37:33;;;;;;;85.38;33.95;;;7.80;99.90;;;;;;4798401;29;20122;-92
2022/05/04 05:51:09;;;;;;;97.25;35.35;;;7.90;99.90;;;;;;4952152;28;20090;-93
2022/05/04 06:11:44;;;;;;;97.95;38.28;;;8.40;99.90;;;;;;4878333;29;20052;-93
2022/05/04 06:15:21;;;;;;;;;;;;;;;;;;;;;
2022/05/04 06:18:38;;;;;;;;;;;;;;;;;;;;;
2022/05/04 06:21:18;;;;;;;;;;;;;;;;;;;;;
2022/05/04 06:23:45;;;;;;;101.63;41.17;;;;;;;;;;4847637;29;20033;-93
2022/05/04 06:26:11;;;;;;;107.30;39.45;;;;;;;;;;4974498;28;20058;-94
2022/05/04 06:29:07;;;;;;;;;;;;;;;;;;;;;
2022/05/04 06:34:19;;;;;;;94.90;40.00;;;9.40;99.90;;;;;;4990970;28;20155;-92
2022/05/04 06:40:58;;;;;;;101.00;39.17;;;9.80;99.90;;;;;;4894989;29;20048;-92
2022/05/04 06:43:51;;;;;;;112.65;40.65;;;9.80;99.90;;;;;;4865812;29;20061;-92
2022/05/04 06:47:07;;;;;;;102.80;41.33;;;9.80;99.90;;;;;;4898046;29;20036;-93
2022/05/04 06:49:40;;;;;;;103.03;39.38;;;10.30;99.90;;;;;;4898794;29;20492;-94
2022/05/04 06:52:37;;;;;;;100.03;41.40;;;9.90;99.90;;;;;;4935300;29;20094;-93
2022/05/04 06:55:06;;;;;;;99.90;40.17;;;10.10;99.90;;;;;;4918188;29;20038;-91
2022/05/04 07:13:00;;;;;;;;;;;;;;;;;;;;;
2022/05/04 07:18:17;;;;;;;93.13;36.55;;;11.40;99.90;;;;;;4995315;28;20500;-93
2022/05/04 07:21:27;;;;;;;94.68;36.58;;;12.30;99.90;;;;;;5036374;28;20029;-92
2022/05/04 07:24:02;;;;;;;85.05;36.28;;;11.80;99.90;;;;;;4988069;28;20485;-94
2022/05/04 07:27:00;;;;;;;88.82;37.35;;;11.70;99.90;;;;;;5008653;28;20045;-91
2022/05/04 07:29:35;;;;;;;77.93;34.33;;;11.70;99.90;;;;;;5021428;28;20125;-93
2022/05/04 07:32:05;;;;;;;98.00;36.50;;;11.80;99.90;;;;;;5029368;28;20064;-92
2022/05/04 07:34:51;;;;;;;86.75;38.78;;;11.80;99.90;;;;;;5006676;28;20031;-92
2022/05/04 07:37:17;;;;;;;82.47;37.13;;;12.00;99.90;;;;;;5030229;28;20025;-93
2022/05/04 07:42:39;;;;;;;87.60;38.67;;;12.00;99.90;;;;;;5028320;28;20028;-92
2022/05/04 07:45:26;;;;;;;88.30;37.60;;;12.30;99.90;;;;;;5002841;28;20033;-93
2022/05/04 08:12:20;;;;;;;70.68;33.53;;;13.60;99.90;;;;;;5087443;28;20105;-92
2022/05/04 08:14:46;;;;;;;74.05;32.65;;;13.50;99.90;;;;;;5094873;28;20017;-91
2022/05/04 08:17:30;;;;;;;66.55;32.10;;;13.70;99.90;;;;;;5073095;28;20439;-94
2022/05/04 08:20:06;;;;;;;72.40;34.15;;;13.80;99.90;;;;;;5086327;28;20074;-92
2022/05/04 08:23:03;;;;;;;73.72;33.92;;;14.00;99.90;;;;;;5093479;28;20253;-92
2022/05/04 08:26:39;;;;;;;62.10;32.13;;;14.10;99.90;;;;;;5093027;28;20035;-93
2022/05/04 08:29:06;;;;;;;61.90;31.27;;;14.20;99.90;;;;;;5078547;28;20388;-91
2022/05/04 08:31:33;;;;;;;64.85;30.90;;;14.00;99.90;;;;;;5095673;28;20174;-91
2022/05/04 08:45:16;;;;;;;66.97;30.48;;;14.50;99.90;;;;;;4955534;29;20031;-94
2022/05/04 08:47:47;;;;;;;60.83;29.80;;;14.30;99.90;;;;;;4938674;29;20130;-91
2022/05/04 08:50:23;;;;;;;59.53;30.77;;;14.10;99.90;;;;;;4984971;28;20038;-91
2022/05/04 08:53:39;;;;;;;;;;;;;;;;;;;;;
2022/05/04 08:59:43;;;;;;;63.53;30.58;;;14.80;99.90;;;;;;5066538;28;20020;-92
2022/05/04 09:02:27;;;;;;;65.10;30.33;;;14.70;99.90;;;;;;5101231;28;20066;-93
2022/05/04 09:05:43;;;;;;;;;;;;;;;;;;;;;
2022/05/04 09:14:35;;;;;;;51.83;27.00;;;15.00;99.90;;;;;;5040825;28;20037;-91
2022/05/04 09:23:52;;;;;;;60.72;29.63;;;15.20;99.90;;;;;;4985460;28;20045;-92
2022/05/04 09:30:27;;;;;;;54.72;27.80;;;15.40;99.90;;;;;;4915015;29;20028;-93
2022/05/04 09:33:31;;;;;;;;;;;;;;;;;;;;;
2022/05/04 09:35:59;;;;;;;60.55;28.33;;;15.60;99.90;;;;;;4877080;29;20375;-91
2022/05/04 09:46:52;;;;;;;54.28;28.55;;;16.10;99.90;;;;;;5093447;28;20038;-92
2022/05/04 09:49:31;;;;;;;56.05;26.90;;;15.50;99.90;;;;;;5092007;28;20047;-91
2022/05/04 09:51:57;;;;;;;45.75;24.27;;;;;;;;;;5091954;28;20040;-91
2022/05/04 09:54:24;;;;;;;46.90;25.08;;;15.70;99.90;;;;;;5091621;28;20388;-89
2022/05/04 09:56:50;;;;;;;57.88;25.42;;;;;;;;;;5087284;28;20035;-91
2022/05/04 09:59:42;;;;;;;46.30;23.85;;;16.00;99.90;;;;;;5088731;28;20020;-93
2022/05/04 10:02:09;;;;;;;49.95;24.25;;;16.20;99.90;;;;;;5079661;28;20404;-91
2022/05/04 10:04:36;;;;;;;54.72;25.42;;;;;;;;;;5091440;28;20039;-91
2022/05/04 10:07:04;;;;;;;52.38;24.80;;;16.30;99.90;;;;;;5091361;28;20024;-90
2022/05/04 10:09:30;;;;;;;51.47;25.48;;;16.40;99.90;;;;;;5091203;28;20025;-91
2022/05/04 10:11:58;;;;;;;50.45;25.73;;;16.30;99.90;;;;;;5091728;28;20039;-90
2022/05/04 10:14:29;;;;;;;48.22;24.38;;;16.50;99.90;;;;;;5093010;28;20020;-91
2022/05/04 10:17:10;;;;;;;48.53;24.23;;;16.20;99.90;;;;;;5091926;28;20392;-92
2022/05/04 10:19:44;;;;;;;50.50;25.23;;;15.90;99.90;;;;;;5091038;28;20027;-90
2022/05/04 10:22:18;;;;;;;54.95;26.33;;;16.10;99.90;;;;;;5090884;28;20050;-91
2022/05/04 10:24:45;;;;;;;54.05;24.80;;;16.00;99.90;;;;;;5082670;28;20020;-89
2022/05/04 10:27:23;;;;;;;49.92;23.55;;;16.20;99.90;;;;;;5088916;28;20534;-92
2022/05/04 10:32:48;;;;;;;42.53;22.27;;;16.00;99.90;;;;;;5117732;28;20093;-92
2022/05/04 10:35:33;;;;;;;44.20;24.48;;;16.20;99.90;;;;;;5115867;28;20096;-91
2022/05/04 10:37:59;;;;;;;49.47;25.40;;;16.10;99.90;;;;;;5116167;28;20032;-91
2022/05/04 10:41:00;;;;;;;44.78;23.58;;;16.10;99.90;;;;;;5090291;28;20074;-92
2022/05/04 10:43:36;;;;;;;44.47;21.70;;;16.20;99.90;;;;;;5047783;28;20035;-90
2022/05/04 10:46:06;;;;;;;44.45;21.50;;;16.50;99.90;;;;;;5089983;28;20131;-91
2022/05/04 10:48:32;;;;;;;53.05;25.27;;;16.50;99.90;;;;;;5091205;28;20073;-90
2022/05/04 10:51:03;;;;;;;42.63;23.05;;;16.00;99.90;;;;;;5091144;28;20032;-93
2022/05/04 10:53:29;;;;;;;52.38;25.88;;;16.20;99.90;;;;;;5089019;28;20085;-91
2022/05/04 10:56:01;;;;;;;50.15;27.30;;;16.30;99.90;;;;;;5089466;28;20016;-91
2022/05/04 10:58:46;;;;;;;53.55;27.20;;;16.20;99.90;;;;;;5089452;28;20024;-92
2022/05/04 11:01:15;;;;;;;58.13;29.30;;;16.30;99.90;;;;;;5083694;28;20031;-91
2022/05/04 11:04:02;;;;;;;57.88;26.85;;;16.60;99.90;;;;;;5090766;28;20487;-91
2022/05/04 11:06:36;;;;;;;63.30;26.80;;;16.80;99.90;;;;;;5097022;28;20031;-94
2022/05/04 11:09:12;;;;;;;63.60;26.88;;;17.10;99.90;;;;;;5088022;28;20031;-91
2022/05/04 11:11:47;;;;;;;54.50;25.88;;;17.30;99.90;;;;;;5095571;28;20218;-91
2022/05/04 11:14:15;;;;;;;48.40;23.83;;;16.90;99.90;;;;;;5090238;28;20069;-93
2022/05/04 11:16:42;;;;;;;45.33;24.48;;;17.00;99.30;;;;;;5090264;28;20468;-91
2022/05/04 11:19:11;;;;;;;47.63;25.20;;;17.10;99.90;;;;;;5088000;28;20020;-91
2022/05/04 11:21:37;;;;;;;56.15;26.13;;;17.10;99.90;;;;;;5089309;28;20724;-90
2022/05/04 11:24:14;;;;;;;52.65;26.75;;;17.30;99.90;;;;;;5087505;28;20032;-90
2022/05/04 11:26:47;;;;;;;53.25;27.23;;;17.00;99.90;;;;;;5112407;27;20028;-91
2022/05/04 11:29:24;;;;;;;53.95;28.75;;;16.80;99.90;;;;;;5089586;28;20020;-89
2022/05/04 11:31:56;;;;;;;52.90;25.75;;;17.10;99.90;;;;;;5088989;28;20024;-92
2022/05/04 11:34:28;;;;;;;53.88;26.33;;;17.00;99.90;;;;;;5088799;28;20028;-89
2022/05/04 11:36:57;;;;;;;55.85;26.52;;;17.00;99.90;;;;;;5088798;28;20379;-91
2022/05/04 11:39:24;;;;;;;61.80;29.80;;;16.90;99.90;;;;;;5089162;28;20024;-91
2022/05/04 11:42:01;;;;;;;61.28;28.67;;;17.20;99.90;;;;;;5106749;28;20039;-88
2022/05/04 11:44:28;;;;;;;49.72;26.50;;;17.20;99.90;;;;;;5088340;28;20422;-89
2022/05/04 11:46:56;;;;;;;53.90;26.02;;;17.10;99.90;;;;;;5092025;28;20028;-91
2022/05/04 11:49:34;;;;;;;56.65;27.95;;;16.90;99.90;;;;;;5092488;28;20028;-94
2022/05/04 11:52:37;;;;;;;;;;;17.10;99.90;;;;;;5099742;28;20048;-92
2022/05/04 11:55:30;;;;;;;;;;;;;;;;;;;;;
2022/05/04 11:58:31;;;;;;;50.55;24.67;;;17.00;99.90;;;;;;5094609;28;20088;-94
2022/05/04 12:01:17;;;;;;;43.25;22.92;;;17.20;99.90;;;;;;5071693;28;20058;-93
2022/05/04 12:06:36;;;;;;;44.50;21.70;;;17.30;98.10;;;;;;5079561;28;20125;-93
2022/05/04 12:09:15;;;;;;;43.92;22.02;;;17.40;99.90;;;;;;5092990;28;20043;-91
2022/05/04 12:11:48;;;;;;;46.65;20.48;;;17.50;99.90;;;;;;5092478;28;20032;-94
2022/05/04 12:14:15;;;;;;;39.92;19.00;;;;;;;;;;5087178;28;20034;-91
2022/05/04 12:16:44;;;;;;;37.72;19.02;;;17.80;99.30;;;;;;5086079;28;20020;-92
2022/05/04 12:19:11;;;;;;;32.40;17.02;;;17.20;94.70;;;;;;5089372;28;20036;-91
2022/05/04 12:21:37;;;;;;;32.58;16.63;;;17.20;98.10;;;;;;5088901;28;20111;-91
2022/05/04 12:24:12;;;;;;;33.85;15.35;;;17.30;96.60;;;;;;5088176;28;20476;-88
2022/05/04 12:26:42;;;;;;;41.40;15.68;;;17.30;97.40;;;;;;5090255;28;20039;-93
2022/05/04 12:34:42;;;;;;;28.40;13.80;;;17.70;96.00;;;;;;5088938;28;20035;-94
2022/05/04 12:37:10;;;;;;;21.33;11.90;;;17.40;92.40;;;;;;5085690;28;20035;-91
2022/05/04 12:39:44;;;;;;;34.42;15.88;;;17.50;95.50;;;;;;5083700;28;20354;-93
2022/05/04 12:42:13;;;;;;;25.73;13.18;;;17.70;96.50;;;;;;5088210;28;20070;-89
2022/05/04 12:44:52;;;;;;;23.83;13.20;;;17.80;95.70;;;;;;5089057;28;20028;-91
2022/05/04 12:47:18;;;;;;;27.42;12.90;;;17.70;91.50;;;;;;5088138;28;20028;-93
2022/05/04 12:49:45;;;;;;;24.40;11.55;;;17.30;93.70;;;;;;5089959;28;20031;-94
2022/05/04 12:52:12;;;;;;;19.20;11.02;;;17.10;91.80;;;;;;5090287;28;20032;-93
2022/05/04 12:54:38;;;;;;;23.63;12.45;;;17.30;92.60;;;;;;5087917;28;20047;-93
2022/05/04 12:57:04;;;;;;;29.13;12.90;;;17.60;91.60;;;;;;5104481;28;20495;-89
2022/05/04 12:59:30;;;;;;;25.13;13.65;;;17.80;92.90;;;;;;5089471;28;20035;-92
2022/05/04 13:01:56;;;;;;;25.08;12.63;;;18.10;90.50;;;;;;5091433;28;20020;-93
2022/05/04 13:04:22;;;;;;;21.30;11.82;;;18.20;93.90;;;;;;5091137;28;20028;-92
2022/05/04 13:06:47;;;;;;;21.08;11.73;;;18.30;90.20;;;;;;5099051;28;20010;-91
2022/05/04 13:09:13;;;;;;;17.15;10.07;;;18.40;93.60;;;;;;5116564;28;20038;-91
2022/05/04 13:11:41;;;;;;;21.27;8.02;;;18.40;90.90;;;;;;5115083;28;20054;-90
2022/05/04 13:14:06;;;;;;;17.80;9.33;;;18.40;92.20;;;;;;5115145;28;20206;-89
2022/05/04 13:16:33;;;;;;;18.63;9.07;;;18.30;88.70;;;;;;5113223;28;20031;-91
2022/05/04 13:19:00;;;;;;;16.88;7.90;;;18.10;81.10;;;;;;5092627;28;20095;-89
2022/05/04 13:21:32;;;;;;;12.20;6.50;;;18.20;87.10;;;;;;5092590;28;20059;-93
2022/05/04 13:23:58;;;;;;;15.00;8.25;;;18.50;87.50;;;;;;5092435;28;20032;-92
2022/05/04 13:26:23;;;;;;;18.50;8.65;;;18.40;83.00;;;;;;5093159;28;20140;-89
2022/05/04 13:29:03;;;;;;;;;;;;;;;;;;;;;
2022/05/04 13:31:32;;;;;;;15.38;8.00;;;18.60;90.10;;;;;;5080019;28;20353;-90
2022/05/04 13:34:09;;;;;;;;;;;18.80;86.10;;;;;;5092219;28;20027;-90
2022/05/04 13:36:35;;;;;;;17.00;8.48;;;;;;;;;;5098709;28;19908;-90
2022/05/04 13:39:01;;;;;;;21.05;10.15;;;18.90;80.80;;;;;;5086657;28;20028;-88
2022/05/04 13:41:45;;;;;;;;;;;;;;;;;;;;;
2022/05/04 13:44:10;;;;;;;22.48;10.60;;;19.00;84.10;;;;;;5093501;28;20028;-90
2022/05/04 13:46:36;;;;;;;19.55;10.80;;;18.50;86.00;;;;;;5108666;28;20249;-92
2022/05/04 13:49:02;;;;;;;18.77;10.23;;;18.50;86.00;;;;;;5092188;28;20027;-90
2022/05/04 13:54:12;;;;;;;16.02;8.68;;;18.30;76.50;;;;;;5083025;28;20042;-92
2022/05/04 13:56:38;;;;;;;19.95;8.88;;;18.40;83.00;;;;;;5093547;28;20103;-92
2022/05/04 13:59:06;;;;;;;22.55;9.93;;;18.60;80.50;;;;;;5094112;28;20472;-90
2022/05/04 14:01:32;;;;;;;19.33;10.52;;;18.50;82.50;;;;;;5092066;28;20107;-90
2022/05/04 14:03:57;;;;;;;21.05;9.73;;;18.70;90.00;;;;;;5093023;28;20066;-91
2022/05/04 14:06:23;;;;;;;20.02;9.52;;;18.60;81.50;;;;;;5091529;28;20017;-91
2022/05/04 14:08:52;;;;;;;22.92;10.02;;;18.70;84.70;;;;;;5090913;28;20067;-90
2022/05/04 14:11:18;;;;;;;17.10;7.75;;;18.80;82.80;;;;;;5108035;28;20035;-92
2022/05/04 14:13:45;;;;;;;18.90;7.80;;;18.70;82.30;;;;;;5084569;28;20028;-89
2022/05/04 14:16:12;;;;;;;14.35;7.63;;;18.50;73.60;;;;;;5090958;28;20039;-91
2022/05/04 14:18:37;;;;;;;18.23;8.32;;;18.50;76.60;;;;;;5088218;28;20063;-90
2022/05/04 14:21:04;;;;;;;18.33;8.10;;;18.60;75.80;;;;;;5090856;28;20036;-93
2022/05/04 14:23:33;;;;;;;20.27;7.20;;;18.50;79.00;;;;;;5081856;28;20024;-92
2022/05/04 14:26:02;;;;;;;18.17;7.63;;;18.50;73.40;;;;;;5094320;28;20024;-94
2022/05/04 14:28:31;;;;;;;12.90;6.85;;;18.40;74.30;;;;;;5093819;28;20031;-93
2022/05/04 14:31:01;;;;;;;19.85;8.10;;;18.20;73.90;;;;;;5094713;28;20047;-91
2022/05/04 14:33:55;;;;;;;18.45;8.52;;;18.10;77.40;;;;;;5082248;28;20024;-91
2022/05/04 14:36:55;;;;;;;15.48;7.88;;;18.30;77.70;;;;;;5089631;28;20122;-93
2022/05/04 14:39:21;;;;;;;15.73;7.65;;;18.20;80.60;;;;;;5076753;28;20036;-92
2022/05/04 14:42:34;;;;;;;16.73;7.75;;;18.30;80.60;;;;;;5107548;28;20055;-93
2022/05/04 14:45:33;;;;;;;10.80;6.03;;;18.20;80.50;;;;;;5090973;28;20044;-92
2022/05/04 14:51:31;;;;;;;13.73;5.65;;;18.60;79.70;;;;;;5092123;28;20488;-92
2022/05/04 14:54:05;;;;;;;15.63;5.72;;;18.10;66.70;;;;;;5088402;28;20024;-92
2022/05/04 14:57:12;;;;;;;18.55;6.00;;;18.30;69.30;;;;;;5089241;28;20028;-93
2022/05/04 14:59:40;;;;;;;11.35;5.20;;;;;;;;;;5076124;28;20393;-92
2022/05/04 15:02:06;;;;;;;8.70;5.13;;;;;;;;;;5068937;28;20539;-92
2022/05/04 15:07:17;;;;;;;10.57;6.25;;;;;;;;;;5083652;28;20138;-96
2022/05/04 15:10:10;;;;;;;10.70;4.93;;;;;;;;;;5091530;28;20404;-93
2022/05/04 15:12:47;;;;;;;6.72;4.03;;;;;;;;;;5061826;28;20104;-91
2022/05/04 15:15:13;;;;;;;6.20;3.80;;;;;;;;;;5088688;28;20024;-92
2022/05/04 15:17:51;;;;;;;7.07;3.70;;;;;;;;;;5089640;28;20369;-94
2022/05/04 15:20:46;;;;;;;4.53;3.00;;;;;;;;;;5090477;28;20471;-91
2022/05/04 15:23:32;;;;;;;9.70;4.85;;;18.10;69.90;;;;;;5094274;28;20053;-92
2022/05/04 15:26:07;;;;;;;10.38;4.30;;;18.20;64.10;;;;;;5069246;28;20028;-93
2022/05/04 15:29:08;;;;;;;12.82;4.00;;;18.30;68.20;;;;;;5073773;28;20075;-94
2022/05/04 15:32:08;;;;;;;;;;;;;;;;;;;;;
2022/05/04 16:10:53;;;;;;;5.10;3.63;;;;;;;;;;5032033;28;20421;-89
2022/05/04 16:13:34;;;;;;;8.25;4.38;;;;;;;;;;5090602;28;20080;-93
2022/05/04 16:22:20;;;;;;;13.70;4.85;;;;;;;;;;5093434;28;20165;-94
2022/05/04 16:31:25;;;;;;;6.88;4.00;;;;;;;;;;5046332;28;20068;-95
2022/05/04 16:34:50;;;;;;;7.13;3.65;;;;;;;;;;5045152;28;20108;-93
2022/05/04 16:36:58;;;;;;;7.43;3.95;;;18.40;66.30;;;;;;5043053;28;20115;-94
2022/05/04 16:44:10;;;;;;;5.53;3.70;;;19.20;60.50;;;;;;5017040;28;20037;-92
2022/05/04 16:50:35;;;;;;;9.23;4.50;;;19.40;59.70;;;;;;4917951;28;20028;-92
2022/05/04 16:53:01;;;;;;;6.32;3.63;;;19.50;60.70;;;;;;5081698;28;20037;-92
2022/05/04 16:55:27;;;;;;;5.28;3.20;;;19.80;60.20;;;;;;5085996;28;20029;-90
2022/05/04 16:57:52;;;;;;;7.47;3.63;;;19.50;57.60;;;;;;5082962;28;20020;-91
2022/05/04 17:00:19;;;;;;;8.93;4.30;;;19.20;60.50;;;;;;5086306;28;20029;-90
2022/05/04 17:02:45;;;;;;;8.38;4.40;;;18.00;61.90;;;;;;5085733;28;20040;-91
2022/05/04 17:05:11;;;;;;;15.90;4.10;;;;;;;;;;5070363;28;20031;-90
2022/05/04 17:07:37;;;;;;;7.60;4.10;;;19.20;61.40;;;;;;5069967;28;20016;-91
2022/05/04 17:10:03;;;;;;;10.52;3.97;;;19.40;63.40;;;;;;5070023;28;20021;-91
2022/05/04 17:12:29;;;;;;;5.53;3.63;;;18.80;59.90;;;;;;5070226;28;20029;-91
2022/05/04 17:14:55;;;;;;;6.68;3.70;;;18.70;61.30;;;;;;5071300;28;20449;-92
2022/05/04 17:17:20;;;;;;;7.50;4.30;;;18.40;60.80;;;;;;5071697;28;20058;-91
2022/05/04 17:19:46;;;;;;;9.45;4.28;;;18.40;62.30;;;;;;5072192;28;20358;-90